createdAt,value
2018-12-17T00:00:55.261Z,7.77
2018-12-17T00:03:24.256Z,11.20
2018-12-17T00:05:53.925Z,11.97
2018-12-17T00:08:22.915Z,8.23
2018-12-17T00:10:51.942Z,9.33
2018-12-17T00:13:21.307Z,8.27
2018-12-17T00:15:50.462Z,9.60
2018-12-17T00:18:19.116Z,10.33
2018-12-17T00:20:47.796Z,10.97
2018-12-17T00:23:16.419Z,11.87
2018-12-17T00:25:45.029Z,13.47
2018-12-17T00:28:13.873Z,11.07
2018-12-17T00:30:42.868Z,10.87
2018-12-17T00:33:11.823Z,10.73
2018-12-17T00:35:40.871Z,8.37
2018-12-17T00:38:10.074Z,10.53
2018-12-17T00:40:39.032Z,12.60
2018-12-17T00:43:08.000Z,12.13
2018-12-17T00:45:37.386Z,9.47
2018-12-17T00:48:06.422Z,10.07
2018-12-17T00:50:35.441Z,10.47
2018-12-17T00:53:04.130Z,13.77
2018-12-17T00:55:33.026Z,10.10
2018-12-17T00:58:02.216Z,9.23
2018-12-17T01:00:31.239Z,11.33
2018-12-17T01:03:01.105Z,11.43
2018-12-17T01:05:30.285Z,10.33
2018-12-17T01:07:59.605Z,11.93
2018-12-17T01:10:28.279Z,10.03
2018-12-17T01:12:57.180Z,10.03
2018-12-17T01:15:25.869Z,11.67
2018-12-17T01:17:54.756Z,10.33
2018-12-17T01:20:23.796Z,10.07
2018-12-17T01:22:53.046Z,9.73
2018-12-17T01:25:22.095Z,9.70
2018-12-17T01:27:51.118Z,12.40
2018-12-17T01:30:20.520Z,11.57
2018-12-17T01:32:49.477Z,9.23
2018-12-17T01:35:18.137Z,9.93
2018-12-17T01:37:46.870Z,10.17
2018-12-17T01:40:15.767Z,10.60
2018-12-17T01:42:44.737Z,10.10
2018-12-17T01:45:13.920Z,11.17
2018-12-17T01:47:42.894Z,12.30
2018-12-17T01:50:11.873Z,13.13
2018-12-17T01:52:47.624Z,11.23
2018-12-17T01:55:16.669Z,11.03
2018-12-17T01:57:45.319Z,12.50
2018-12-17T02:00:14.872Z,13.43
2018-12-17T02:02:43.876Z,11.40
2018-12-17T02:05:12.887Z,13.73
2018-12-17T02:07:42.208Z,17.20
2018-12-17T02:10:11.041Z,10.90
2018-12-17T02:12:39.684Z,12.27
2018-12-17T02:15:08.730Z,12.87
2018-12-17T02:17:37.726Z,13.90
2018-12-17T02:20:06.416Z,13.20
2018-12-17T02:22:35.404Z,14.93
2018-12-17T02:25:04.319Z,17.47
2018-12-17T02:27:33.213Z,11.40
2018-12-17T02:30:02.507Z,13.17
2018-12-17T02:32:31.526Z,17.63
2018-12-17T02:35:00.532Z,11.80
2018-12-17T02:37:29.240Z,16.33
2018-12-17T02:39:58.442Z,14.40
2018-12-17T02:42:27.139Z,13.60
2018-12-17T02:44:56.061Z,12.80
2018-12-17T02:47:25.391Z,14.73
2018-12-17T02:49:54.059Z,18.00
2018-12-17T02:52:22.979Z,17.07
2018-12-17T02:54:51.961Z,17.93
2018-12-17T02:57:20.768Z,13.50
2018-12-17T02:59:49.677Z,14.77
2018-12-17T03:02:18.714Z,15.17
2018-12-17T03:04:47.803Z,17.33
2018-12-17T03:07:16.530Z,10.77
2018-12-17T03:09:45.103Z,11.57
2018-12-17T03:12:14.345Z,9.07
2018-12-17T03:14:43.662Z,9.83
2018-12-17T03:17:12.762Z,13.77
2018-12-17T03:19:41.443Z,13.50
2018-12-17T03:22:10.387Z,11.40
2018-12-17T03:24:39.441Z,12.10
2018-12-17T03:27:08.458Z,10.33
2018-12-17T03:29:37.144Z,12.50
2018-12-17T03:32:06.067Z,16.13
2018-12-17T03:34:35.107Z,12.20
2018-12-17T03:37:04.109Z,12.07
2018-12-17T03:39:33.103Z,10.57
2018-12-17T03:42:02.337Z,11.57
2018-12-17T03:44:30.987Z,12.43
2018-12-17T03:46:59.681Z,12.47
2018-12-17T03:49:28.652Z,11.03
2018-12-17T03:51:57.660Z,12.40
2018-12-17T03:54:26.754Z,13.50
2018-12-17T03:56:55.656Z,11.60
2018-12-17T03:59:24.643Z,11.13
2018-12-17T04:01:53.661Z,17.30
2018-12-17T04:04:22.678Z,16.17
2018-12-17T04:06:51.360Z,41.93
2018-12-17T04:09:20.244Z,48.20
2018-12-17T04:11:49.553Z,32.53
2018-12-17T04:14:18.250Z,70.10
2018-12-17T04:16:47.181Z,85.03
2018-12-17T04:19:16.531Z,115.40
2018-12-17T04:21:45.525Z,86.27
2018-12-17T04:24:14.532Z,59.73
2018-12-17T04:26:43.511Z,149.40
2018-12-17T04:29:12.614Z,156.00
2018-12-17T04:31:41.613Z,99.47
2018-12-17T04:34:10.628Z,76.77
2018-12-17T04:36:39.666Z,155.50
2018-12-17T04:39:08.333Z,103.27
2018-12-17T04:41:37.269Z,104.67
2018-12-17T04:44:06.252Z,48.27
2018-12-17T04:46:35.256Z,93.90
2018-12-17T04:49:03.914Z,77.00
2018-12-17T04:51:33.182Z,97.23
2018-12-17T04:54:02.003Z,84.53
2018-12-17T04:56:30.889Z,81.80
2018-12-17T04:58:59.954Z,110.23
2018-12-17T05:01:28.630Z,91.67
2018-12-17T05:03:57.200Z,63.40
2018-12-17T05:06:26.108Z,77.23
2018-12-17T05:08:55.108Z,160.17
2018-12-17T05:11:24.121Z,135.97
2018-12-17T05:13:53.145Z,72.47
2018-12-17T05:16:22.221Z,81.33
2018-12-17T05:18:51.235Z,28.30
2018-12-17T05:21:20.542Z,96.27
2018-12-17T05:23:49.577Z,83.17
2018-12-17T05:26:19.045Z,57.37
2018-12-17T05:28:48.186Z,38.17
2018-12-17T05:31:17.168Z,127.07
2018-12-17T05:33:46.187Z,54.93
2018-12-17T05:36:15.172Z,91.40
2018-12-17T05:38:44.192Z,103.83
2018-12-17T05:41:13.132Z,94.67
2018-12-17T05:43:42.335Z,48.77
2018-12-17T05:46:11.309Z,62.57
2018-12-17T05:48:40.300Z,51.93
2018-12-17T05:51:08.972Z,47.93
2018-12-17T05:53:38.084Z,30.53
2018-12-17T05:56:07.161Z,24.13
2018-12-17T05:58:36.152Z,54.30
2018-12-17T06:01:04.951Z,25.90
2018-12-17T06:03:33.866Z,26.33
2018-12-17T06:06:02.984Z,51.47
2018-12-17T06:08:32.056Z,22.67
2018-12-17T06:11:01.034Z,68.37
2018-12-17T06:13:29.748Z,26.87
2018-12-17T06:15:58.353Z,25.33
2018-12-17T06:18:27.263Z,20.17
2018-12-17T06:20:56.619Z,29.63
2018-12-17T06:23:25.621Z,26.27
2018-12-17T06:25:54.609Z,33.27
2018-12-17T06:28:23.698Z,39.00
2018-12-17T06:30:52.389Z,26.77
2018-12-17T06:33:21.334Z,41.43
2018-12-17T06:35:50.321Z,23.50
2018-12-17T06:38:19.449Z,20.13
2018-12-17T06:40:48.413Z,33.17
2018-12-17T06:43:17.441Z,20.77
2018-12-17T06:45:46.224Z,27.93
2018-12-17T06:48:17.262Z,20.17
2018-12-17T06:50:45.874Z,24.87
2018-12-17T06:53:14.873Z,24.97
2018-12-17T06:55:43.735Z,34.27
2018-12-17T06:58:13.340Z,21.33
2018-12-17T07:00:42.353Z,17.87
2018-12-17T07:03:11.342Z,17.27
2018-12-17T07:05:40.611Z,19.47
2018-12-17T07:08:09.358Z,18.47
2018-12-17T07:10:38.237Z,18.73
2018-12-17T07:13:07.260Z,15.83
2018-12-17T07:15:36.231Z,11.37
2018-12-17T07:18:05.362Z,13.70
2018-12-17T07:20:34.329Z,12.43
2018-12-17T07:23:03.621Z,14.20
2018-12-17T07:25:32.280Z,16.33
2018-12-17T07:28:01.180Z,16.10
2018-12-17T07:30:30.173Z,19.07
2018-12-17T07:32:59.425Z,18.37
2018-12-17T07:35:28.489Z,15.53
2018-12-17T07:37:57.859Z,18.20
2018-12-17T07:40:27.061Z,16.40
2018-12-17T07:42:55.857Z,23.07
2018-12-17T07:45:24.741Z,32.83
2018-12-17T07:47:53.713Z,20.40
2018-12-17T07:50:22.672Z,20.40
2018-12-17T07:52:51.730Z,17.40
2018-12-17T07:55:20.804Z,20.40
2018-12-17T07:57:49.923Z,21.87
2018-12-17T08:00:19.225Z,26.97
2018-12-17T08:02:48.217Z,23.30
2018-12-17T08:05:17.180Z,22.73
2018-12-17T08:07:45.952Z,25.03
2018-12-17T08:10:15.478Z,18.57
2018-12-17T08:12:44.201Z,21.03
2018-12-17T08:15:14.018Z,16.53
2018-12-17T08:17:42.877Z,16.77
2018-12-17T08:20:11.778Z,18.00
2018-12-17T08:22:41.494Z,14.43
2018-12-17T08:25:10.293Z,19.07
2018-12-17T08:27:38.876Z,13.47
2018-12-17T08:30:07.837Z,13.53
2018-12-17T08:32:37.097Z,18.00
2018-12-17T08:35:06.024Z,15.93
2018-12-17T08:37:34.932Z,20.93
2018-12-17T08:40:04.707Z,20.27
2018-12-17T08:42:33.770Z,19.27
2018-12-17T08:45:02.747Z,15.40
2018-12-17T08:47:31.720Z,12.67
2018-12-17T08:50:00.717Z,18.03
2018-12-17T08:52:29.388Z,14.83
2018-12-17T08:54:58.898Z,14.50
2018-12-17T08:57:27.889Z,11.27
2018-12-17T08:59:56.584Z,14.87
2018-12-17T09:02:25.156Z,15.87
2018-12-17T09:04:54.082Z,11.97
2018-12-17T09:07:23.124Z,12.53
2018-12-17T09:09:52.114Z,11.70
2018-12-17T09:12:21.091Z,14.83
2018-12-17T09:14:50.108Z,15.00
2018-12-17T09:17:18.771Z,10.87
2018-12-17T09:19:47.366Z,17.93
2018-12-17T09:22:16.312Z,12.57
2018-12-17T09:24:46.019Z,15.53
2018-12-17T09:27:14.787Z,12.30
2018-12-17T09:29:43.688Z,12.13
2018-12-17T09:32:12.354Z,8.83
2018-12-17T09:34:41.536Z,10.03
2018-12-17T09:37:10.561Z,11.30
2018-12-17T09:39:39.576Z,8.73
2018-12-17T09:42:08.681Z,18.90
2018-12-17T09:44:37.708Z,13.20
2018-12-17T09:47:06.772Z,9.23
2018-12-17T09:49:35.751Z,10.93
2018-12-17T09:52:04.744Z,11.03
2018-12-17T09:54:33.696Z,10.70
2018-12-17T09:57:02.624Z,15.83
2018-12-17T09:59:31.587Z,12.27
2018-12-17T10:02:00.556Z,14.10
2018-12-17T10:04:29.542Z,11.13
2018-12-17T10:06:58.785Z,9.57
2018-12-17T10:09:27.775Z,11.07
2018-12-17T10:11:56.786Z,10.87
2018-12-17T10:14:25.823Z,11.63
2018-12-17T10:16:54.870Z,13.23
2018-12-17T10:19:23.919Z,14.20
2018-12-17T10:21:52.580Z,9.17
2018-12-17T10:24:21.501Z,7.93
2018-12-17T10:26:50.534Z,11.43
2018-12-17T10:29:19.219Z,8.60
2018-12-17T10:31:48.732Z,10.20
2018-12-17T10:34:17.705Z,10.23
2018-12-17T10:36:46.663Z,8.47
2018-12-17T10:39:15.294Z,6.57
2018-12-17T10:41:44.228Z,8.60
2018-12-17T10:44:13.309Z,8.43
2018-12-17T10:46:42.296Z,8.43
2018-12-17T10:49:11.312Z,8.80
2018-12-17T10:51:40.533Z,8.73
2018-12-17T10:54:09.577Z,9.00
2018-12-17T10:56:38.635Z,11.20
2018-12-17T10:59:07.600Z,8.97
2018-12-17T11:02:44.720Z,8.67
2018-12-17T11:05:16.581Z,9.73
2018-12-17T11:07:45.560Z,8.43
2018-12-17T11:10:14.283Z,6.93
2018-12-17T11:12:43.186Z,8.70
2018-12-17T11:15:11.788Z,8.53
2018-12-17T11:17:40.668Z,8.00
2018-12-17T11:20:10.721Z,9.77
2018-12-17T11:22:40.036Z,9.17
2018-12-17T11:25:09.276Z,7.83
2018-12-17T11:27:38.283Z,7.57
2018-12-17T11:30:08.617Z,8.40
2018-12-17T11:32:39.238Z,9.80
2018-12-17T11:35:07.930Z,9.97
2018-12-17T11:37:36.813Z,6.67
2018-12-17T11:40:06.099Z,8.47
2018-12-17T11:42:35.097Z,8.37
2018-12-17T11:45:04.756Z,7.97
2018-12-17T11:47:33.732Z,8.03
2018-12-17T11:50:02.728Z,7.03
2018-12-17T11:52:31.720Z,8.40
2018-12-17T11:55:00.698Z,13.47
2018-12-17T11:58:10.114Z,7.97
2018-12-17T12:00:41.524Z,8.20
2018-12-17T12:03:10.796Z,7.33
2018-12-17T12:05:39.851Z,11.23
2018-12-17T12:08:08.615Z,7.10
2018-12-17T12:10:37.188Z,10.97
2018-12-17T12:13:05.812Z,8.17
2018-12-17T12:15:34.685Z,6.40
2018-12-17T12:18:03.809Z,6.93
2018-12-17T12:20:32.808Z,6.73
2018-12-17T12:23:01.973Z,9.80
2018-12-17T12:25:30.937Z,6.83
2018-12-17T12:27:59.979Z,6.67
2018-12-17T12:30:28.991Z,6.40
2018-12-17T12:32:58.001Z,6.27
2018-12-17T12:35:27.141Z,6.87
2018-12-17T12:37:56.123Z,7.33
2018-12-17T12:40:24.790Z,5.83
2018-12-17T12:42:53.713Z,6.53
2018-12-17T12:45:22.411Z,7.67
2018-12-17T12:47:51.416Z,7.17
2018-12-17T12:50:20.624Z,7.73
2018-12-17T12:52:49.632Z,8.77
2018-12-17T12:55:18.619Z,5.73
2018-12-17T12:57:47.467Z,5.90
2018-12-17T13:00:16.649Z,5.47
2018-12-17T13:02:45.709Z,7.23
2018-12-17T13:05:14.398Z,5.43
2018-12-17T13:07:43.321Z,5.77
2018-12-17T13:10:13.320Z,7.97
2018-12-17T13:12:42.556Z,5.40
2018-12-17T13:15:11.625Z,6.43
2018-12-17T13:17:40.624Z,5.93
2018-12-17T13:20:10.934Z,4.80
2018-12-17T13:22:39.910Z,6.07
2018-12-17T13:25:13.147Z,7.63
2018-12-17T13:27:42.161Z,5.57
2018-12-17T13:30:11.270Z,6.60
2018-12-17T13:32:40.252Z,6.40
2018-12-17T13:35:09.714Z,7.33
2018-12-17T13:37:38.691Z,6.87
2018-12-17T13:40:09.899Z,5.63
2018-12-17T13:42:38.880Z,8.47
2018-12-17T13:45:08.115Z,7.27
2018-12-17T13:47:36.887Z,7.53
2018-12-17T13:50:39.531Z,5.97
2018-12-17T13:53:13.711Z,8.43
2018-12-17T13:55:42.633Z,6.70
2018-12-17T13:58:12.278Z,7.87
2018-12-17T14:00:41.452Z,7.50
2018-12-17T14:03:10.123Z,9.77
2018-12-17T14:05:39.327Z,8.03
2018-12-17T14:08:07.996Z,6.10
2018-12-17T14:10:55.462Z,9.37
2018-12-17T14:13:24.768Z,9.30
2018-12-17T14:15:57.928Z,10.33
2018-12-17T14:18:32.307Z,7.13
2018-12-17T14:21:06.720Z,10.50
2018-12-17T14:23:35.737Z,9.70
2018-12-17T14:26:04.843Z,7.83
2018-12-17T14:28:33.520Z,10.90
2018-12-17T14:31:02.466Z,10.43
2018-12-17T14:33:32.289Z,8.80
2018-12-17T14:36:06.680Z,11.43
2018-12-17T14:38:35.993Z,6.87
2018-12-17T14:41:05.548Z,10.87
2018-12-17T14:43:34.447Z,8.77
2018-12-17T14:46:03.531Z,8.60
2018-12-17T14:48:32.522Z,8.73
2018-12-17T14:51:01.527Z,13.67
2018-12-17T14:53:30.507Z,10.43
2018-12-17T14:55:59.204Z,12.13
2018-12-17T14:58:28.080Z,7.37
2018-12-17T15:01:00.074Z,13.40
2018-12-17T15:03:29.107Z,9.67
2018-12-17T15:05:58.089Z,8.87
2018-12-17T15:08:27.043Z,12.03
2018-12-17T15:10:56.351Z,9.23
2018-12-17T15:13:25.331Z,9.80
2018-12-17T15:15:54.400Z,8.40
2018-12-17T15:18:23.384Z,7.33
2018-12-17T15:20:52.048Z,6.50
2018-12-17T15:23:20.934Z,8.23
2018-12-17T15:25:49.608Z,7.73
2018-12-17T15:28:18.604Z,7.67
2018-12-17T15:30:47.285Z,6.10
2018-12-17T15:33:16.144Z,5.03
2018-12-17T15:35:44.839Z,6.07
2018-12-17T15:38:14.027Z,8.27
2018-12-17T15:40:43.017Z,10.30
2018-12-17T15:43:12.035Z,10.40
2018-12-17T15:45:41.204Z,8.30
2018-12-17T15:48:09.862Z,7.60
2018-12-17T15:50:38.789Z,9.03
2018-12-17T15:53:07.799Z,7.83
2018-12-17T15:55:36.487Z,8.77
2018-12-17T15:58:05.040Z,9.10
2018-12-17T16:00:33.949Z,6.13
2018-12-17T16:03:03.081Z,10.27
2018-12-17T16:05:32.793Z,6.33
2018-12-17T16:08:01.783Z,6.17
2018-12-17T16:10:31.143Z,6.60
2018-12-17T16:13:00.131Z,9.20
2018-12-17T16:15:29.103Z,6.67
2018-12-17T16:17:58.125Z,6.90
2018-12-17T16:20:27.140Z,4.50
2018-12-17T16:22:55.803Z,7.83
2018-12-17T16:25:24.356Z,9.60
2018-12-17T16:27:53.027Z,7.43
2018-12-17T16:30:21.892Z,7.90
2018-12-17T16:33:01.932Z,9.70
2018-12-17T16:35:31.014Z,5.33
2018-12-17T16:38:01.214Z,8.67
2018-12-17T16:40:30.927Z,5.60
2018-12-17T16:42:59.821Z,6.47
2018-12-17T16:45:28.495Z,9.03
2018-12-17T16:47:57.089Z,5.83
2018-12-17T16:50:26.437Z,10.37
2018-12-17T16:52:56.256Z,6.30
2018-12-17T16:55:26.333Z,7.10
2018-12-17T16:57:55.305Z,9.17
2018-12-17T17:00:24.373Z,7.00
2018-12-17T17:05:14.671Z,5.97
2018-12-17T17:07:43.622Z,6.93
2018-12-17T17:10:12.581Z,5.30
2018-12-17T17:12:42.491Z,7.63
2018-12-17T17:15:15.996Z,7.43
2018-12-17T17:17:45.322Z,4.70
2018-12-17T17:20:13.976Z,8.40
2018-12-17T17:22:42.888Z,6.60
2018-12-17T17:25:12.247Z,7.43
2018-12-17T17:27:41.284Z,7.27
2018-12-17T17:30:11.694Z,6.23
2018-12-17T17:32:40.296Z,5.97
2018-12-17T17:35:09.245Z,7.37
2018-12-17T17:37:38.820Z,7.43
2018-12-17T17:40:07.943Z,5.70
2018-12-17T17:42:36.903Z,7.17
2018-12-17T17:45:06.203Z,10.00
2018-12-17T17:47:34.893Z,9.20
2018-12-17T17:50:05.085Z,8.67
2018-12-17T17:52:34.297Z,9.47
2018-12-17T17:55:03.101Z,6.23
2018-12-17T17:57:32.064Z,14.70
2018-12-17T18:00:01.128Z,9.83
2018-12-17T18:02:30.205Z,6.33
2018-12-17T18:04:59.147Z,10.70
2018-12-17T18:07:28.050Z,11.43
2018-12-17T18:09:56.704Z,5.73
2018-12-17T18:12:25.553Z,13.60
2018-12-17T18:14:54.151Z,8.77
2018-12-17T18:17:23.116Z,9.20
2018-12-17T18:19:51.779Z,7.00
2018-12-17T18:22:20.740Z,8.50
2018-12-17T18:24:49.700Z,8.63
2018-12-17T18:27:18.732Z,11.77
2018-12-17T18:29:47.409Z,7.10
2018-12-17T18:32:16.307Z,11.77
2018-12-17T18:34:45.314Z,12.60
2018-12-17T18:37:14.344Z,7.70
2018-12-17T18:39:43.354Z,14.43
2018-12-17T18:42:12.357Z,10.27
2018-12-17T18:44:41.839Z,10.13
2018-12-17T18:47:10.629Z,12.97
2018-12-17T18:49:39.258Z,13.83
2018-12-17T18:52:08.156Z,13.93
2018-12-17T18:54:36.990Z,18.47
2018-12-17T18:57:05.569Z,15.10
2018-12-17T18:59:34.524Z,12.90
2018-12-17T19:02:03.228Z,16.60
2018-12-17T19:04:32.250Z,14.40
2018-12-17T19:07:00.927Z,15.13
2018-12-17T19:09:29.580Z,14.60
2018-12-17T19:11:58.223Z,15.17
2018-12-17T19:14:27.189Z,14.07
2018-12-17T19:16:55.991Z,16.47
2018-12-17T19:19:25.333Z,16.30
2018-12-17T19:21:54.053Z,14.80
2018-12-17T19:24:23.666Z,15.53
2018-12-17T19:26:52.563Z,17.27
2018-12-17T19:29:21.256Z,16.30
2018-12-17T19:31:50.257Z,16.40
2018-12-17T19:34:18.955Z,14.53
2018-12-17T19:36:47.884Z,18.60
2018-12-17T19:39:16.600Z,21.10
2018-12-17T19:41:45.557Z,18.93
2018-12-17T19:44:14.251Z,19.77
2018-12-17T19:46:42.836Z,23.83
2018-12-17T19:49:11.503Z,20.63
2018-12-17T19:51:40.123Z,18.47
2018-12-17T19:54:08.720Z,16.30
2018-12-17T19:56:37.663Z,19.77
2018-12-17T19:59:06.870Z,16.93
2018-12-17T20:01:35.548Z,15.80
2018-12-17T20:04:04.202Z,15.23
2018-12-17T20:06:33.158Z,20.00
2018-12-17T20:09:02.531Z,20.00
2018-12-17T20:11:31.214Z,20.80
2018-12-17T20:13:59.838Z,20.83
2018-12-17T20:16:28.741Z,21.93
2018-12-17T20:18:57.836Z,19.70
2018-12-17T20:21:26.413Z,20.77
2018-12-17T20:23:55.093Z,20.40
2018-12-17T20:26:24.091Z,19.93
2018-12-17T20:28:53.016Z,18.80
2018-12-17T20:31:21.613Z,20.40
2018-12-17T20:33:50.221Z,16.30
2018-12-17T20:36:18.837Z,17.67
2018-12-17T20:38:47.472Z,20.20
2018-12-17T20:41:16.143Z,22.37
2018-12-17T20:43:45.072Z,18.73
2018-12-17T20:46:17.190Z,16.70
2018-12-17T20:48:47.386Z,19.53
2018-12-17T20:51:17.892Z,19.03
2018-12-17T20:53:46.789Z,21.17
2018-12-17T20:56:15.772Z,21.63
2018-12-17T20:58:44.746Z,19.40
2018-12-17T21:01:14.054Z,18.73
2018-12-17T21:03:43.068Z,19.53
2018-12-17T21:06:12.059Z,17.53
2018-12-17T21:08:41.084Z,19.37
2018-12-17T21:11:10.163Z,19.60
2018-12-17T21:13:39.107Z,19.53
2018-12-17T21:16:07.792Z,19.27
2018-12-17T21:18:36.751Z,21.37
2018-12-17T21:21:05.728Z,21.00
2018-12-17T21:23:35.056Z,19.63
2018-12-17T21:26:04.019Z,21.97
2018-12-17T21:28:32.806Z,19.90
2018-12-17T21:31:01.496Z,21.67
2018-12-17T21:33:30.159Z,22.83
2018-12-17T21:35:58.727Z,18.33
2018-12-17T21:38:27.633Z,18.27
2018-12-17T21:40:56.934Z,17.00
2018-12-17T21:43:25.947Z,17.60
2018-12-17T21:45:54.912Z,16.67
2018-12-17T21:48:23.617Z,16.93
2018-12-17T21:50:52.223Z,17.13
2018-12-17T21:53:21.149Z,18.97
2018-12-17T21:55:50.143Z,14.43
2018-12-17T21:58:19.152Z,16.57
2018-12-17T22:00:48.163Z,13.43
2018-12-17T22:03:17.153Z,13.67
2018-12-17T22:05:46.144Z,17.70
2018-12-17T22:08:15.134Z,15.87
2018-12-17T22:10:44.152Z,15.80
2018-12-17T22:13:13.420Z,16.80
2018-12-17T22:15:42.465Z,16.27
2018-12-17T22:18:11.482Z,14.17
2018-12-17T22:20:40.470Z,17.10
2018-12-17T22:23:09.147Z,14.70
2018-12-17T22:25:38.328Z,11.73
2018-12-17T22:28:07.421Z,15.30
2018-12-17T22:30:36.434Z,13.63
2018-12-17T22:33:05.393Z,14.60
2018-12-17T22:35:34.325Z,11.73
2018-12-17T22:38:03.390Z,12.30
2018-12-17T22:40:32.073Z,13.00
2018-12-17T22:43:01.293Z,16.03
2018-12-17T22:45:30.615Z,13.03
2018-12-17T22:48:00.018Z,11.23
2018-12-17T22:50:29.012Z,15.03
2018-12-17T22:52:57.681Z,13.13
2018-12-17T22:55:26.590Z,15.00
2018-12-17T22:57:56.036Z,13.17
2018-12-17T23:00:25.588Z,13.70
2018-12-17T23:02:54.611Z,11.40
2018-12-17T23:05:23.699Z,11.47
2018-12-17T23:07:52.928Z,12.90
2018-12-17T23:10:37.592Z,12.87
2018-12-17T23:13:11.974Z,17.27
2018-12-17T23:15:46.191Z,13.10
2018-12-17T23:18:14.568Z,13.50
2018-12-17T23:20:43.331Z,12.53
2018-12-17T23:23:12.240Z,11.30
2018-12-17T23:25:41.252Z,12.93
2018-12-17T23:28:09.836Z,13.63
2018-12-17T23:30:39.554Z,12.33
2018-12-17T23:33:08.599Z,15.07
2018-12-17T23:35:37.622Z,15.97
2018-12-17T23:38:07.062Z,13.23
2018-12-17T23:40:36.096Z,14.27
2018-12-17T23:43:05.389Z,15.97
2018-12-17T23:45:34.402Z,11.23
2018-12-17T23:48:02.964Z,11.37
2018-12-17T23:50:31.569Z,14.27
2018-12-17T23:53:00.768Z,9.53
2018-12-17T23:55:29.760Z,10.17
2018-12-17T23:57:58.764Z,10.57
